createdAt,value
2023-11-15T00:02:15.857Z,99591.16
2023-11-15T00:05:19.088Z,99594.53
2023-11-15T00:08:21.901Z,99598.28
2023-11-15T00:11:26.429Z,99598.00
2023-11-15T00:14:29.239Z,99596.63
2023-11-15T00:17:32.339Z,99595.81
2023-11-15T00:20:36.504Z,99598.53
2023-11-15T00:23:39.845Z,99597.16
2023-11-15T00:26:43.935Z,99606.56
2023-11-15T00:29:47.149Z,99610.06
2023-11-15T00:32:49.933Z,99606.50
2023-11-15T00:35:53.598Z,99606.50
2023-11-15T00:38:56.652Z,99610.97
2023-11-15T00:42:01.743Z,99612.28
2023-11-15T00:45:06.449Z,99621.38
2023-11-15T00:48:09.375Z,99618.41
2023-11-15T00:51:13.603Z,99625.00
2023-11-15T00:54:16.744Z,99629.06
2023-11-15T00:57:21.011Z,99636.22
2023-11-15T01:00:28.134Z,99642.81
2023-11-15T01:03:32.101Z,99642.22
2023-11-15T01:06:35.230Z,99646.63
2023-11-15T01:09:39.166Z,99654.88
2023-11-15T01:12:44.255Z,99657.84
2023-11-15T01:15:47.747Z,99657.38
2023-11-15T01:18:50.674Z,99656.50
2023-11-15T01:21:54.917Z,99652.94
2023-11-15T01:24:58.096Z,99662.25
2023-11-15T01:28:02.356Z,99658.69
2023-11-15T01:31:06.455Z,99671.56
2023-11-15T01:34:09.479Z,99675.94
2023-11-15T01:37:14.223Z,99677.34
2023-11-15T01:40:17.052Z,99677.06
2023-11-15T01:43:21.262Z,99672.44
2023-11-15T01:46:24.290Z,99674.66
2023-11-15T01:49:30.506Z,99682.59
2023-11-15T01:52:33.527Z,99689.66
2023-11-15T01:55:37.351Z,99687.78
2023-11-15T01:58:41.737Z,99689.41
2023-11-15T02:01:45.033Z,99681.19
2023-11-15T02:04:47.985Z,99702.06
2023-11-15T02:07:50.695Z,99695.50
2023-11-15T02:10:53.711Z,99688.06
2023-11-15T02:13:58.174Z,99708.66
2023-11-15T02:17:01.154Z,99706.72
2023-11-15T02:20:07.257Z,99714.72
2023-11-15T02:23:10.875Z,99714.44
2023-11-15T02:26:15.897Z,99715.78
2023-11-15T02:29:19.052Z,99724.28
2023-11-15T02:32:22.426Z,99731.97
2023-11-15T02:35:25.459Z,99734.50
2023-11-15T02:38:28.353Z,99742.97
2023-11-15T02:41:32.631Z,99744.06
2023-11-15T02:44:36.513Z,99750.88
2023-11-15T02:47:39.650Z,99744.09
2023-11-15T02:50:42.708Z,99749.53
2023-11-15T02:53:45.716Z,99760.22
2023-11-15T02:56:49.868Z,99758.28
2023-11-15T02:59:52.752Z,99775.53
2023-11-15T03:02:55.802Z,99777.53
2023-11-15T03:05:59.735Z,99782.47
2023-11-15T03:09:02.684Z,99797.00
2023-11-15T03:12:07.474Z,99790.16
2023-11-15T03:15:11.046Z,99797.78
2023-11-15T03:18:14.073Z,99810.16
2023-11-15T03:21:17.019Z,99817.59
2023-11-15T03:24:19.952Z,99818.16
2023-11-15T03:27:24.371Z,99836.50
2023-11-15T03:30:27.258Z,99834.59
2023-11-15T03:33:30.380Z,99844.19
2023-11-15T03:36:34.144Z,99838.41
2023-11-15T03:39:39.032Z,99845.81
2023-11-15T03:42:43.375Z,99856.50
2023-11-15T03:45:46.339Z,99861.72
2023-11-15T03:48:49.249Z,99864.19
2023-11-15T03:51:51.966Z,99871.31
2023-11-15T03:54:54.910Z,99879.47
2023-11-15T03:57:59.014Z,99880.88
2023-11-15T04:01:02.141Z,99890.69
2023-11-15T04:04:05.529Z,99897.81
2023-11-15T04:07:09.418Z,99900.53
2023-11-15T04:10:12.817Z,99907.91
2023-11-15T04:13:18.861Z,99910.66
2023-11-15T04:16:22.319Z,99931.44
2023-11-15T04:19:25.120Z,99932.28
2023-11-15T04:22:27.899Z,99949.75
2023-11-15T04:25:31.442Z,99951.69
2023-11-15T04:28:35.632Z,99963.91
2023-11-15T04:31:38.916Z,99963.03
2023-11-15T04:34:41.659Z,99974.81
2023-11-15T04:37:44.560Z,99972.63
2023-11-15T04:40:47.510Z,99980.78
2023-11-15T04:43:51.644Z,99987.66
2023-11-15T04:46:54.841Z,99994.72
2023-11-15T04:49:57.557Z,100001.69
2023-11-15T04:53:00.834Z,100002.22
2023-11-15T04:56:03.982Z,100007.88
2023-11-15T04:59:08.693Z,100019.88
2023-11-15T05:02:11.920Z,100020.59
2023-11-15T05:05:15.644Z,100031.06
2023-11-15T05:08:18.594Z,100034.44
2023-11-15T05:11:21.449Z,100045.63
2023-11-15T05:14:25.541Z,100041.00
2023-11-15T05:17:28.640Z,100042.78
2023-11-15T05:20:32.479Z,100049.81
2023-11-15T05:26:38.532Z,100055.59
2023-11-15T05:29:42.772Z,100065.28
2023-11-15T05:32:46.080Z,100068.16
2023-11-15T05:35:49.234Z,100072.56
2023-11-15T05:38:52.000Z,100082.00
2023-11-15T05:41:54.849Z,100089.59
2023-11-15T05:44:59.003Z,100095.53
2023-11-15T05:48:01.999Z,100101.88
2023-11-15T05:51:07.799Z,100104.88
2023-11-15T05:54:11.555Z,100115.13
2023-11-15T05:57:14.968Z,100121.56
2023-11-15T06:00:21.428Z,100135.50
2023-11-15T06:03:25.347Z,100145.59
2023-11-15T06:06:28.808Z,100137.72
2023-11-15T06:09:32.044Z,100152.28
2023-11-15T06:12:36.406Z,100160.34
2023-11-15T06:15:40.458Z,100151.38
2023-11-15T06:18:45.622Z,100175.34
2023-11-15T06:21:48.442Z,100174.00
2023-11-15T06:24:51.975Z,100183.09
2023-11-15T06:27:55.153Z,100196.63
2023-11-15T06:30:59.921Z,100199.75
2023-11-15T06:34:03.246Z,100199.69
2023-11-15T06:37:06.739Z,100214.06
2023-11-15T06:40:10.980Z,100213.97
2023-11-15T06:43:13.939Z,100222.94
2023-11-15T06:46:21.392Z,100229.22
2023-11-15T06:49:24.686Z,100233.72
2023-11-15T06:52:27.415Z,100242.81
2023-11-15T06:55:30.176Z,100240.91
2023-11-15T06:58:32.920Z,100247.72
2023-11-15T07:01:37.130Z,100259.03
2023-11-15T07:04:42.112Z,100263.41
2023-11-15T07:07:44.914Z,100253.81
2023-11-15T07:10:47.793Z,100273.66
2023-11-15T07:13:50.552Z,100277.25
2023-11-15T07:16:56.709Z,100282.16
2023-11-15T07:19:59.633Z,100281.44
2023-11-15T07:23:03.227Z,100287.25
2023-11-15T07:26:06.722Z,100301.41
2023-11-15T07:29:10.899Z,100302.72
2023-11-15T07:32:15.165Z,100312.13
2023-11-15T07:35:19.962Z,100316.19
2023-11-15T07:38:24.750Z,100326.19
2023-11-15T07:41:27.653Z,100326.03
2023-11-15T07:44:31.465Z,100340.72
2023-11-15T07:47:36.133Z,100334.41
2023-11-15T07:50:39.245Z,100348.31
2023-11-15T07:53:43.367Z,100358.63
2023-11-15T07:56:46.488Z,100365.44
2023-11-15T07:59:49.668Z,100371.56
2023-11-15T08:02:56.763Z,100384.00
2023-11-15T08:05:59.750Z,100370.94
2023-11-15T08:09:04.001Z,100386.78
2023-11-15T08:12:07.342Z,100387.19
2023-11-15T08:15:12.808Z,100393.34
2023-11-15T08:18:17.576Z,100406.91
2023-11-15T08:21:22.474Z,100416.53
2023-11-15T08:24:25.701Z,100426.47
2023-11-15T08:27:28.625Z,100428.13
2023-11-15T08:30:31.431Z,100438.38
2023-11-15T08:33:37.593Z,100441.63
2023-11-15T08:36:41.088Z,100442.19
2023-11-15T08:39:44.684Z,100454.28
2023-11-15T08:42:48.395Z,100456.75
2023-11-15T08:45:51.168Z,100467.28
2023-11-15T08:48:56.205Z,100479.22
2023-11-15T08:51:59.228Z,100478.38
2023-11-15T08:55:03.013Z,100483.19
2023-11-15T08:58:06.674Z,100488.28
2023-11-15T09:01:10.861Z,100488.34
2023-11-15T09:04:17.596Z,100498.19
2023-11-15T09:07:20.976Z,100504.09
2023-11-15T09:10:23.916Z,100505.56
2023-11-15T09:13:29.593Z,100517.84
2023-11-15T09:16:32.329Z,100525.22
2023-11-15T09:19:37.426Z,100526.94
2023-11-15T09:22:40.202Z,100539.03
2023-11-15T09:25:43.171Z,100541.63
2023-11-15T09:28:46.047Z,100538.63
2023-11-15T09:31:48.906Z,100538.66
2023-11-15T09:34:53.376Z,100546.41
2023-11-15T09:37:58.305Z,100559.28
2023-11-15T09:41:01.849Z,100554.38
2023-11-15T09:44:10.451Z,100558.69
2023-11-15T09:47:14.127Z,100567.88
2023-11-15T09:50:25.510Z,100567.13
2023-11-15T09:53:31.963Z,100575.34
2023-11-15T09:56:36.432Z,100572.59
2023-11-15T09:59:48.084Z,100576.31
2023-11-15T10:02:55.641Z,100574.41
2023-11-15T10:06:01.653Z,100576.31
2023-11-15T10:09:05.323Z,100589.91
2023-11-15T10:12:09.279Z,100596.69
2023-11-15T10:15:12.649Z,100583.50
2023-11-15T10:18:16.889Z,100598.28
2023-11-15T10:21:21.682Z,100596.63
2023-11-15T10:24:24.650Z,100601.94
2023-11-15T10:27:36.622Z,100605.41
2023-11-15T10:30:41.725Z,100611.09
2023-11-15T10:33:47.195Z,100611.19
2023-11-15T10:37:06.829Z,100612.91
2023-11-15T10:40:12.918Z,100622.97
2023-11-15T10:43:17.180Z,100622.88
2023-11-15T10:46:30.357Z,100625.91
2023-11-15T10:49:39.354Z,100630.47
2023-11-15T10:52:45.147Z,100631.75
2023-11-15T10:55:49.529Z,100638.31
2023-11-15T10:58:54.438Z,100641.16
2023-11-15T11:02:01.916Z,100640.72
2023-11-15T11:05:05.312Z,100646.44
2023-11-15T11:08:23.422Z,100644.16
2023-11-15T11:11:34.879Z,100652.75
2023-11-15T11:14:38.083Z,100664.88
2023-11-15T11:17:44.198Z,100666.03
2023-11-15T11:20:57.777Z,100665.59
2023-11-15T11:24:13.210Z,100670.50
2023-11-15T11:27:38.011Z,100674.53
2023-11-15T11:30:41.921Z,100681.31
2023-11-15T11:34:10.490Z,100690.28
2023-11-15T11:37:13.286Z,100690.03
2023-11-15T11:40:17.797Z,100687.88
2023-11-15T11:43:24.095Z,100695.00
2023-11-15T11:46:27.060Z,100694.09
2023-11-15T11:49:30.078Z,100686.28
2023-11-15T11:52:32.798Z,100697.59
2023-11-15T11:55:37.074Z,100691.34
2023-11-15T11:58:41.233Z,100693.91
2023-11-15T12:01:51.772Z,100700.63
2023-11-15T12:04:54.556Z,100700.56
2023-11-15T12:07:57.856Z,100706.56
2023-11-15T12:11:02.450Z,100707.13
2023-11-15T12:14:05.442Z,100713.59
2023-11-15T12:17:08.305Z,100715.75
2023-11-15T12:20:12.327Z,100717.75
2023-11-15T12:23:16.854Z,100721.97
2023-11-15T12:26:21.007Z,100719.41
2023-11-15T12:29:25.662Z,100725.75
2023-11-15T12:32:29.192Z,100722.47
2023-11-15T12:35:33.160Z,100725.69
2023-11-15T12:38:35.955Z,100722.50
2023-11-15T12:41:48.728Z,100730.41
2023-11-15T12:44:51.854Z,100730.25
2023-11-15T12:48:12.969Z,100731.06
2023-11-15T12:51:16.512Z,100734.13
2023-11-15T12:54:19.907Z,100744.00
2023-11-15T12:57:24.179Z,100741.88
2023-11-15T13:00:29.354Z,100745.44
2023-11-15T13:03:36.162Z,100750.00
2023-11-15T13:06:39.412Z,100757.59
2023-11-15T13:09:42.115Z,100766.69
2023-11-15T13:12:46.210Z,100767.38
2023-11-15T13:15:48.958Z,100775.28
2023-11-15T13:18:52.213Z,100770.94
2023-11-15T13:21:55.202Z,100770.13
2023-11-15T13:24:58.002Z,100778.50
2023-11-15T13:28:02.396Z,100774.72
2023-11-15T13:31:08.383Z,100778.38
2023-11-15T13:34:11.322Z,100788.69
2023-11-15T13:37:14.367Z,100789.03
2023-11-15T13:40:20.430Z,100791.25
2023-11-15T13:43:24.502Z,100790.03
2023-11-15T13:46:29.775Z,100790.06
2023-11-15T13:49:32.904Z,100802.13
2023-11-15T13:52:35.798Z,100788.22
2023-11-15T13:55:39.337Z,100803.69
2023-11-15T13:58:43.608Z,100798.88
2023-11-15T14:01:47.907Z,100801.94
2023-11-15T14:04:50.765Z,100799.81
2023-11-15T14:07:54.250Z,100808.69
2023-11-15T14:10:59.827Z,100810.50
2023-11-15T14:14:05.268Z,100817.25
2023-11-15T14:17:09.062Z,100828.78
2023-11-15T14:20:12.723Z,100829.69
2023-11-15T14:23:16.554Z,100837.91
2023-11-15T14:26:19.951Z,100835.84
2023-11-15T14:29:24.949Z,100843.97
2023-11-15T14:32:28.737Z,100834.75
2023-11-15T14:35:31.653Z,100843.09
2023-11-15T14:38:34.672Z,100852.47
2023-11-15T14:41:37.796Z,100849.25
2023-11-15T14:44:43.002Z,100849.72
2023-11-15T14:47:46.863Z,100853.22
2023-11-15T14:50:52.127Z,100849.41
2023-11-15T14:53:56.877Z,100856.56
2023-11-15T14:56:59.722Z,100856.81
2023-11-15T15:00:04.675Z,100857.88
2023-11-15T15:03:07.566Z,100857.53
2023-11-15T15:06:13.888Z,100862.94
2023-11-15T15:09:19.099Z,100865.31
2023-11-15T15:12:24.049Z,100858.03
2023-11-15T15:15:28.259Z,100867.34
2023-11-15T15:18:34.735Z,100861.03
2023-11-15T15:21:38.204Z,100871.47
2023-11-15T15:24:40.990Z,100879.13
2023-11-15T15:27:44.231Z,100882.44
2023-11-15T15:30:54.126Z,100893.91
2023-11-15T15:33:57.013Z,100898.56
2023-11-15T15:36:59.744Z,100895.31
2023-11-15T15:40:02.636Z,100902.44
2023-11-15T15:43:05.402Z,100912.94
2023-11-15T15:46:09.584Z,100913.44
2023-11-15T15:49:12.470Z,100919.66
2023-11-15T15:52:15.746Z,100929.78
2023-11-15T15:55:18.536Z,100935.06
2023-11-15T15:58:21.463Z,100937.22
2023-11-15T16:01:29.628Z,100938.31
2023-11-15T16:04:32.637Z,100926.91
2023-11-15T16:07:36.156Z,100925.66
2023-11-15T16:10:39.036Z,100934.75
2023-11-15T16:13:41.738Z,100930.38
2023-11-15T16:16:50.032Z,100928.25
2023-11-15T16:19:55.443Z,100941.22
2023-11-15T16:23:00.983Z,100936.63
2023-11-15T16:26:05.588Z,100938.63
2023-11-15T16:29:10.174Z,100941.50
2023-11-15T16:32:14.384Z,100952.22
2023-11-15T16:35:17.421Z,100958.28
2023-11-15T16:38:20.108Z,100961.97
2023-11-15T16:41:22.840Z,100969.69
2023-11-15T16:44:29.349Z,100969.31
2023-11-15T16:47:33.746Z,100972.88
2023-11-15T16:50:37.145Z,100978.56
2023-11-15T16:53:39.882Z,100977.97
2023-11-15T16:56:44.904Z,100979.13
2023-11-15T16:59:50.396Z,100980.72
2023-11-15T17:02:55.594Z,100975.13
2023-11-15T17:05:58.582Z,100976.75
2023-11-15T17:09:01.401Z,100992.16
2023-11-15T17:12:04.737Z,100994.06
2023-11-15T17:15:08.667Z,100998.31
2023-11-15T17:18:13.231Z,101006.13
2023-11-15T17:21:16.083Z,101002.19
2023-11-15T17:24:20.234Z,101004.75
2023-11-15T17:27:25.109Z,101008.44
2023-11-15T17:30:28.199Z,100998.66
2023-11-15T17:33:33.961Z,100997.28
2023-11-15T17:36:36.979Z,101004.97
2023-11-15T17:39:39.875Z,101004.03
2023-11-15T17:42:42.931Z,101008.13
2023-11-15T17:45:45.916Z,100999.63
2023-11-15T17:48:50.213Z,101009.69
2023-11-15T17:51:54.625Z,101003.25
2023-11-15T17:54:57.692Z,101003.03
2023-11-15T17:58:00.444Z,101004.69
2023-11-15T18:01:03.477Z,101010.75
2023-11-15T18:04:14.899Z,101006.75
2023-11-15T18:07:17.786Z,101015.16
2023-11-15T18:10:27.108Z,101013.25
2023-11-15T18:13:29.978Z,101006.75
2023-11-15T18:16:33.111Z,101011.75
2023-11-15T18:19:37.240Z,101013.06
2023-11-15T18:22:41.331Z,101003.41
2023-11-15T18:25:47.252Z,101007.66
2023-11-15T18:28:49.998Z,101017.34
2023-11-15T18:31:53.217Z,101010.88
2023-11-15T18:34:57.452Z,101009.22
2023-11-15T18:38:00.167Z,101003.16
2023-11-15T18:41:05.770Z,101007.78
2023-11-15T18:44:09.333Z,101015.13
2023-11-15T18:47:12.568Z,101016.34
2023-11-15T18:50:16.789Z,101011.72
2023-11-15T18:53:20.130Z,101016.56
2023-11-15T18:56:23.016Z,101008.84
2023-11-15T18:59:25.833Z,101018.09
2023-11-15T19:02:28.632Z,101010.19
2023-11-15T19:05:33.201Z,101016.75
2023-11-15T19:08:36.151Z,101014.19
2023-11-15T19:11:38.944Z,101014.56
2023-11-15T19:14:41.884Z,101031.94
2023-11-15T19:17:50.970Z,101017.84
2023-11-15T19:20:55.646Z,101022.69
2023-11-15T19:24:01.470Z,101019.97
2023-11-15T19:27:04.484Z,101029.56
2023-11-15T19:30:10.140Z,101022.94
2023-11-15T19:33:13.975Z,101017.66
2023-11-15T19:36:18.839Z,101021.16
2023-11-15T19:39:21.588Z,101019.41
2023-11-15T19:42:24.534Z,101026.94
2023-11-15T19:45:27.507Z,101025.63
2023-11-15T19:48:30.525Z,101020.88
2023-11-15T19:51:37.847Z,101016.38
2023-11-15T19:54:42.058Z,101018.66
2023-11-15T19:57:45.126Z,101012.78
2023-11-15T20:00:48.401Z,101023.59
2023-11-15T20:03:51.441Z,101024.44
2023-11-15T20:06:55.679Z,101025.50
2023-11-15T20:09:59.522Z,101027.00
2023-11-15T20:13:02.245Z,101019.06
2023-11-15T20:16:05.913Z,101024.88
2023-11-15T20:19:10.488Z,101019.81
2023-11-15T20:22:14.820Z,101037.53
2023-11-15T20:25:17.792Z,101031.63
2023-11-15T20:28:22.877Z,101015.56
2023-11-15T20:31:28.621Z,100997.56
2023-11-15T20:34:33.035Z,101002.66
2023-11-15T20:37:37.342Z,101012.66
2023-11-15T20:40:41.722Z,101014.50
2023-11-15T20:43:44.513Z,101006.91
2023-11-15T20:46:47.741Z,101022.22
2023-11-15T20:49:52.475Z,101013.34
2023-11-15T20:52:56.918Z,101017.50
2023-11-15T20:55:59.807Z,101022.28
2023-11-15T20:59:02.561Z,101017.41
2023-11-15T21:02:05.536Z,101009.22
2023-11-15T21:05:09.606Z,101009.59
2023-11-15T21:08:14.245Z,101021.25
2023-11-15T21:11:16.992Z,101016.31
2023-11-15T21:14:19.867Z,101005.84
2023-11-15T21:17:22.779Z,101006.59
2023-11-15T21:20:25.664Z,101004.66
2023-11-15T21:23:31.706Z,101007.53
2023-11-15T21:26:34.481Z,100999.81
2023-11-15T21:29:37.610Z,100995.19
2023-11-15T21:32:41.398Z,100993.28
2023-11-15T21:35:44.248Z,100991.59
2023-11-15T21:38:48.575Z,101000.88
2023-11-15T21:41:51.310Z,100998.28
2023-11-15T21:44:54.183Z,100996.47
2023-11-15T21:47:57.792Z,100998.75
2023-11-15T21:51:00.707Z,100991.63
2023-11-15T21:54:05.043Z,100987.94
2023-11-15T21:57:08.723Z,100979.75
2023-11-15T22:00:15.794Z,100986.84
2023-11-15T22:03:18.857Z,100981.88
2023-11-15T22:06:23.197Z,100980.44
2023-11-15T22:09:27.759Z,100980.56
2023-11-15T22:12:30.703Z,100983.69
2023-11-15T22:15:33.511Z,100981.31
2023-11-15T22:18:40.565Z,100973.44
2023-11-15T22:21:46.816Z,100970.13
2023-11-15T22:24:51.120Z,100964.75
2023-11-15T22:27:54.038Z,100969.53
2023-11-15T22:30:56.944Z,100968.44
2023-11-15T22:33:59.817Z,100962.75
2023-11-15T22:37:02.680Z,100972.13
2023-11-15T22:40:07.872Z,100965.50
2023-11-15T22:43:10.656Z,100968.47
2023-11-15T22:46:13.553Z,100964.69
2023-11-15T22:49:16.530Z,100963.25
2023-11-15T22:52:19.407Z,100952.44
2023-11-15T22:55:23.486Z,100948.66
2023-11-15T22:58:26.368Z,100962.19
2023-11-15T23:01:29.166Z,100955.91
2023-11-15T23:04:32.148Z,100947.09
2023-11-15T23:07:35.048Z,100947.09
2023-11-15T23:10:40.002Z,100946.25
2023-11-15T23:13:43.090Z,100944.97
2023-11-15T23:16:46.044Z,100946.75
2023-11-15T23:19:51.762Z,100939.03
2023-11-15T23:22:54.793Z,100928.94
2023-11-15T23:25:58.960Z,100924.63
2023-11-15T23:29:02.293Z,100934.84
2023-11-15T23:32:05.469Z,100938.63
2023-11-15T23:35:09.246Z,100938.78
2023-11-15T23:38:12.079Z,100937.00
2023-11-15T23:41:16.410Z,100938.03
2023-11-15T23:44:20.197Z,100940.19
2023-11-15T23:47:23.819Z,100934.59
2023-11-15T23:50:27.200Z,100929.13
2023-11-15T23:53:30.368Z,100934.94
2023-11-15T23:56:34.622Z,100933.88
2023-11-15T23:59:37.443Z,100937.00
